Watertown, SD

5:17 AM CST on February 21, 2018 (GMT -0600)
Watertown Municipal | | Change Station
Active Advisory: Wind Chill Advisory

Elev 1745 ft 44.91 °N, 97.15 °W | Updated 24 minutes ago

Mostly Cloudy
Mostly Cloudy
-9 °F
Feels Like -24 °F
N
7
Wind Variable Wind from WSW

Today
High -- | Low -- °F
--% Chance of Precip.
Yesterday
High -- | Low -- °F
Precip. -- in
Pressure 30.56 in
Visibility 10.0 miles
Clouds Clear
Windchill -24 °F
Dew Point -13 °F
Humidity 83%
Rainfall 0.00 in
Snow Depth Not available.
7:19 AM 6:05 PM
Waxing Crescent, 30% visible
METAR KATY 211053Z AUTO 25006KT 10SM CLR M23/M25 A3042 RMK AO2 SLP349 T12281250
Pressure 30.56 in
Visibility 10.0 miles
Clouds Clear
Windchill -24 °F
Dew Point -13 °F
Humidity 83%
Rainfall 0.00 in
Snow Depth Not available.
7:19 AM 6:05 PM
Waxing Crescent, 30% visible
METAR KATY 211053Z AUTO 25006KT 10SM CLR M23/M25 A3042 RMK AO2 SLP349 T12281250

Get Your Daily Forecast Email!

Thanks for signing up!

Be on the lookout for a verification email in your inbox.

You'll start receiving severe weather alerts in your inbox..

×

10-Day Weather Forecast

Almanac

Astronomy

Feb. 21, 2018 Rise Set
Actual Time
Civil Twilight
Nautical Twilight
Astronomical Twilight
Moon
Length of Visible Light
Length of Day
Tomorrow will be .
, % of the Moon is Illuminated

Today's Extremes

State Highs State Lows

Community

WunderPhotos

Category 6

Welcome to Category 6. This is the collective home for Weather Underground's featured writeups by Dr. Jeff Masters (right), Bob Henson (left), Chris Burt, and other regular contributors.

Nearby

Air Quality

  Air Quality AQ Index Pollutant
Not available.

Snow Depth

Station Depth Elevation

Earthquake Activity

City Distance Mag. Time & Date
Minimum magnitude displayed is 2.5.

Coastal Water Temperatures

Place Temperature

Stations

Nearby Weather Stations

Station Location Temp. Windchill Dew Point Humidity Wind Precip. Elev Updated Type
                   

Watches & Warnings

Wind Chill Advisory
Issued: 1:25 AM MST Feb. 21, 2018 – National Weather Service

... Wind Chill Advisory remains in effect until 10 am CST /9 am
MST/ this morning...

* what... very cold wind chills expected. Expect wind chills as
low as 35 below zero.

* Where... portions of central, north central and northeast South
Dakota and west central Minnesota.

* When... until 10 am CST /9 am MST/ this morning.

* Additional details... the cold wind chills could cause
frostbite on exposed skin in as little as 30 minutes.

Precautionary/preparedness actions...

A Wind Chill Advisory means that cold air and the wind will
combine to create low wind chills. Frostbite and hypothermia can
occur if precautions are not taken. Make sure you wear a hat and
gloves.



Connelly